LEAL - Información del aeropuerto


Mapa

Información de pistas
Pista 10 Longitud 9842 ft Anchura 148 ft
Elevación 142 ft Threshold 0 ft Heading 100
Pista 28 Longitud 9842 ft Anchura 148 ft
Elevación 44 ft Threshold 0 ft Heading 280
Frecuencias del aeropuerto
Tipo APP Nombre APP Frecuencia 118.8 MHZ
Tipo ATIS Nombre ATIS Frecuencia 113.8 MHZ
Tipo GND Nombre GND Frecuencia 121.7 MHZ
Tipo TWR Nombre TWR Frecuencia 118.15 MHZ
Radio-ayudas del aeropuerto
Tipo VOR-DME Nombre Alicante Frecuencia 113800 KHZ
Tipo VOR-DME Nombre Alicante Frecuencia 114650 KHZ
Información meteorología y NOTAM del aeropuerto
ADDS - METARS form results

(2354 UTC 23 October 2019)
Data provider http://aviationweather.gov/metar/data/
 
METAR text: LEAL 232330Z 29007KT 9999 FEW040 13/08 Q1012 NOSIG
Conditions at: LEAL (ALICANTE/EL ALTE, ES) observed 2330 UTC 23 October 2019
Temperature: 13.0°C (55°F)
Dewpoint: 8.0°C (46°F) [RH = 72%]
Pressure (altimeter): 29.88 inches Hg (1012.0 mb)
Winds: from the WNW (290 degrees) at 8 MPH (7 knots; 3.6 m/s)
Visibility: 6 or more miles (10+ km)
Ceiling: at least 12,000 feet AGL
Clouds: few clouds at 4000 feet AGL
Weather: no significant weather observed at this time

METAR text: LEAL 232300Z 27003KT 240V320 9999 FEW040 12/09 Q1012 NOSIG
Conditions at: LEAL (ALICANTE/EL ALTE, ES) observed 2300 UTC 23 October 2019
Temperature: 12.0°C (54°F)
Dewpoint: 9.0°C (48°F) [RH = 82%]
Pressure (altimeter): 29.88 inches Hg (1012.0 mb)
Winds: from the W (270 degrees) at 3 MPH (3 knots; 1.5 m/s)
Visibility: 6 or more miles (10+ km)
Ceiling: at least 12,000 feet AGL
Clouds: few clouds at 4000 feet AGL
Weather: no significant weather observed at this time

Forecast for: LEAL (ALICANTE/EL ALTE, ES)
Text: TAF LEAL 232300Z 2400/2424 26009KT 9999 FEW040 TX22/2412Z TN11/2406Z
Forecast period: 0000 to 0700 UTC 24 October 2019
Forecast type: FROM: standard forecast or significant change
Winds: from the W (260 degrees) at 10 MPH (9 knots; 4.6 m/s)
Visibility: 6 or more miles 10+ km)
Ceiling: at least 12,000 feet AGL
Clouds: few clouds at 4000 feet AGL
Weather: no significant weather forecast for this period
Text: BECMG 2407/2409 32015KT
Forecast period: 0700 to 1400 UTC 24 October 2019
Forecast type: BECOMING: Conditions expected to become as follows by 0900 UTC 24 October 2019
Winds: from the NW (320 degrees) at 17 MPH (15 knots; 7.7 m/s)
Visibility: 6 or more miles 10+ km)
Ceiling: at least 12,000 feet AGL
Clouds: few clouds at 4000 feet AGL
Weather: no significant weather forecast for this period
Text: BECMG 2414/2416 32005KT
Forecast period: 1400 UTC 24 October 2019 to 0000 UTC 25 October 2019
Forecast type: BECOMING: Conditions expected to become as follows by 1600 UTC 24 October 2019
Winds: from the NW (320 degrees) at 6 MPH (5 knots; 2.6 m/s)
Visibility: 6 or more miles 10+ km)
Ceiling: at least 12,000 feet AGL
Clouds: few clouds at 4000 feet AGL
Weather: no significant weather forecast for this period